Time;durP1;ratioP1;P1;durP2;ratioP2;P2;SDS_P1;SDS_P2;PMS_P1;PMS_P2;Temp;Humidity;BMP_temperature;BMP_pressure;BME280_temperature;BME280_humidity;BME280_pressure;Samples;Min_cycle;Max_cycle;Signal;HPM_P1;HPM_P2
2023/10/25 00:02:21;;;;;;;3.08;2.30;;;;;;;;;;5114956;28;20074;-80
2023/10/25 00:04:47;;;;;;;3.10;2.63;;;;;;;;;;5114376;28;20031;-80
2023/10/25 00:07:17;;;;;;;3.40;2.50;;;;;;;;;;5114713;28;20039;-80
2023/10/25 00:09:46;;;;;;;5.35;2.55;;;;;;;;;;5115200;28;20050;-80
2023/10/25 00:12:12;;;;;;;3.83;2.38;;;;;;;;;;5116578;28;20043;-80
2023/10/25 00:14:38;;;;;;;3.25;2.28;;;;;;;;;;5100853;28;20340;-80
2023/10/25 00:17:04;;;;;;;6.22;2.50;;;;;;;;;;5117954;28;20043;-80
2023/10/25 00:19:30;;;;;;;4.05;2.67;;;;;;;;;;5100224;28;20122;-80
2023/10/25 00:21:56;;;;;;;3.30;2.33;;;;;;;;;;5117613;28;20038;-80
2023/10/25 00:24:23;;;;;;;3.42;2.20;;;;;;;;;;5118431;28;20089;-80
2023/10/25 00:26:50;;;;;;;2.30;1.95;;;;;;;;;;5111377;28;20039;-80
2023/10/25 00:29:16;;;;;;;4.03;2.25;;;;;;;;;;5118259;28;20043;-80
2023/10/25 00:31:45;;;;;;;2.40;2.17;;;;;;;;;;5118750;28;20042;-80
2023/10/25 00:34:11;;;;;;;5.05;2.15;;;;;;;;;;5113506;28;20057;-80
2023/10/25 00:36:37;;;;;;;4.05;2.00;;;;;;;;;;5119388;28;20035;-80
2023/10/25 00:39:03;;;;;;;3.42;2.25;;;;;;;;;;5117244;28;20061;-80
2023/10/25 00:41:29;;;;;;;3.78;2.13;;;;;;;;;;5110030;28;20266;-80
2023/10/25 00:43:55;;;;;;;4.38;2.55;;;;;;;;;;5118235;28;20035;-81
2023/10/25 00:46:29;;;;;;;3.75;2.33;;;;;;;;;;5116180;28;20039;-80
2023/10/25 00:48:57;;;;;;;3.03;2.40;;;;;;;;;;5114241;28;20050;-80
2023/10/25 00:51:24;;;;;;;3.38;2.45;;;;;;;;;;5115970;28;20436;-80
2023/10/25 00:53:51;;;;;;;4.30;2.45;;;;;;;;;;5098055;28;20039;-80
2023/10/25 00:56:17;;;;;;;3.00;2.20;;;;;;;;;;5114090;28;20046;-80
2023/10/25 00:58:45;;;;;;;4.00;2.72;;;;;;;;;;5149652;27;20044;-80
2023/10/25 01:01:11;;;;;;;3.70;2.53;;;;;;;;;;5114849;28;20456;-80
2023/10/25 01:03:37;;;;;;;5.20;2.17;;;;;;;;;;5116864;28;20381;-80
2023/10/25 01:06:03;;;;;;;3.63;2.13;;;;;;;;;;5116575;28;20123;-80
2023/10/25 01:08:30;;;;;;;2.72;2.00;;;;;;;;;;5098573;28;20559;-80
2023/10/25 01:10:56;;;;;;;2.92;2.20;;;;;;;;;;5115235;28;20040;-80
2023/10/25 01:13:22;;;;;;;4.78;1.95;;;;;;;;;;5116104;28;20039;-80
2023/10/25 01:15:48;;;;;;;3.75;2.25;;;;;;;;;;5117098;28;20099;-80
2023/10/25 01:18:15;;;;;;;5.72;2.40;;;;;;;;;;5117193;28;20410;-80
2023/10/25 01:20:41;;;;;;;4.47;2.28;;;;;;;;;;5115217;28;20047;-80
2023/10/25 01:23:07;;;;;;;4.07;2.22;;;;;;;;;;5115132;28;20517;-80
2023/10/25 01:25:33;;;;;;;4.45;1.92;;;;;;;;;;5116256;28;20043;-80
2023/10/25 01:28:00;;;;;;;2.70;2.25;;;;;;;;;;5115634;28;20036;-80
2023/10/25 01:30:30;;;;;;;3.53;2.40;;;;;;;;;;5119185;28;20065;-80
2023/10/25 01:32:58;;;;;;;3.17;1.88;;;;;;;;;;5119275;28;20043;-80
2023/10/25 01:35:24;;;;;;;2.50;1.90;;;;;;;;;;5113448;28;20073;-80
2023/10/25 01:37:50;;;;;;;4.95;2.55;;;;;;;;;;5121420;28;20078;-80
2023/10/25 01:40:16;;;;;;;4.07;2.25;;;;;;;;;;5117946;28;20055;-80
2023/10/25 01:42:43;;;;;;;4.35;2.97;;;;;;;;;;5120098;28;20069;-79
2023/10/25 01:45:09;;;;;;;4.22;2.83;;;;;;;;;;5118876;28;20099;-79
2023/10/25 01:47:35;;;;;;;5.60;2.60;;;;;;;;;;5119767;28;20130;-80
2023/10/25 01:50:01;;;;;;;5.60;2.97;;;;;;;;;;5120863;28;20092;-80
2023/10/25 01:52:27;;;;;;;5.85;2.45;;;;;;;;;;5137450;28;20038;-80
2023/10/25 01:54:53;;;;;;;4.55;2.60;;;;;;;;;;5139711;28;20050;-80
2023/10/25 01:57:20;;;;;;;4.05;2.58;;;;;;;;;;5139572;27;20039;-80
2023/10/25 01:59:46;;;;;;;3.47;2.58;;;;;;;;;;5139519;27;20075;-80
2023/10/25 02:02:12;;;;;;;4.55;2.92;;;;;;;;;;5139260;28;20035;-80
2023/10/25 02:04:39;;;;;;;6.78;2.80;;;;;;;;;;5132189;28;20051;-79
2023/10/25 02:07:05;;;;;;;5.28;2.75;;;;;;;;;;5120700;28;20427;-79
2023/10/25 02:09:31;;;;;;;3.38;2.70;;;;;;;;;;5120834;28;20070;-80
2023/10/25 02:11:58;;;;;;;3.72;2.75;;;;;;;;;;5119076;28;20044;-80
2023/10/25 02:14:27;;;;;;;4.65;2.88;;;;;;;;;;5122367;28;20039;-79
2023/10/25 02:16:53;;;;;;;4.07;2.95;;;;;;;;;;5116415;28;20036;-79
2023/10/25 02:19:19;;;;;;;6.05;3.13;;;;;;;;;;5121286;28;20036;-79
2023/10/25 02:21:46;;;;;;;6.45;2.45;;;;;;;;;;5120267;28;20032;-80
2023/10/25 02:24:14;;;;;;;3.70;2.88;;;;;;;;;;5120088;28;20114;-80
2023/10/25 02:26:40;;;;;;;5.07;3.30;;;;;;;;;;5121962;28;20509;-80
2023/10/25 02:29:06;;;;;;;4.90;3.40;;;;;;;;;;5120011;28;20040;-80
2023/10/25 02:31:37;;;;;;;6.28;2.95;;;;;;;;;;5117615;28;20047;-80
2023/10/25 02:34:03;;;;;;;5.47;3.22;;;;;;;;;;5101290;28;20040;-80
2023/10/25 02:36:34;;;;;;;5.63;3.28;;;;;;;;;;5120294;28;20035;-80
2023/10/25 02:39:01;;;;;;;6.45;3.50;;;;;;;;;;5120253;28;20177;-80
2023/10/25 02:41:26;;;;;;;7.97;3.10;;;;;;;;;;5119498;28;20063;-79
2023/10/25 02:43:59;;;;;;;7.20;3.33;;;;;;;;;;5130556;28;20024;-80
2023/10/25 02:46:27;;;;;;;5.82;3.25;;;;;;;;;;5123063;28;20046;-80
2023/10/25 02:48:53;;;;;;;4.07;2.70;;;;;;;;;;5123108;28;20044;-80
2023/10/25 02:51:19;;;;;;;4.35;2.85;;;;;;;;;;5122096;28;20048;-80
2023/10/25 02:53:45;;;;;;;4.80;3.10;;;;;;;;;;5122592;28;20078;-80
2023/10/25 02:56:11;;;;;;;3.35;2.97;;;;;;;;;;5122620;28;20031;-80
2023/10/25 02:58:40;;;;;;;4.78;2.55;;;;;;;;;;5124295;27;20051;-80
2023/10/25 03:01:09;;;;;;;5.05;2.88;;;;;;;;;;5118220;28;20122;-80
2023/10/25 03:03:35;;;;;;;5.00;2.95;;;;;;;;;;5117796;28;20138;-80
2023/10/25 03:06:04;;;;;;;4.45;2.55;;;;;;;;;;5122471;28;20058;-80
2023/10/25 03:08:30;;;;;;;3.28;2.58;;;;;;;;;;5124477;28;20043;-80
2023/10/25 03:10:56;;;;;;;3.15;2.63;;;;;;;;;;5121580;28;20064;-80
2023/10/25 03:13:23;;;;;;;4.32;2.38;;;;;;;;;;5122201;28;20043;-80
2023/10/25 03:15:49;;;;;;;3.88;2.53;;;;;;;;;;5122320;28;20059;-80
2023/10/25 03:18:18;;;;;;;4.55;2.75;;;;;;;;;;5120001;28;20039;-80
2023/10/25 03:20:44;;;;;;;7.03;2.90;;;;;;;;;;5103545;28;20040;-80
2023/10/25 03:23:10;;;;;;;3.42;2.50;;;;;;;;;;5123601;27;20063;-81
2023/10/25 03:25:36;;;;;;;3.97;2.70;;;;;;;;;;5102568;28;20046;-81
2023/10/25 03:28:02;;;;;;;4.45;2.33;;;;;;;;;;5123352;28;20050;-81
2023/10/25 03:30:28;;;;;;;4.30;3.00;;;;;;;;;;5123071;28;20588;-81
2023/10/25 03:32:57;;;;;;;7.35;3.28;;;;;;;;;;5123339;28;20039;-81
2023/10/25 03:35:23;;;;;;;3.30;2.53;;;;;;;;;;5124253;28;20127;-81
2023/10/25 03:37:49;;;;;;;5.20;2.83;;;;;;;;;;5121897;28;20039;-81
2023/10/25 03:40:15;;;;;;;4.45;2.40;;;;;;;;;;5119630;28;20063;-80
2023/10/25 03:42:41;;;;;;;3.45;2.75;;;;;;;;;;5123736;28;20425;-80
2023/10/25 03:45:07;;;;;;;3.00;2.35;;;;;;;;;;5122240;28;20044;-80
2023/10/25 03:47:37;;;;;;;4.63;2.70;;;;;;;;;;5122839;28;20051;-80
2023/10/25 03:50:04;;;;;;;4.43;2.78;;;;;;;;;;5121020;28;20062;-80
2023/10/25 03:52:30;;;;;;;4.25;2.67;;;;;;;;;;5118945;28;20031;-80
2023/10/25 03:54:56;;;;;;;3.50;2.78;;;;;;;;;;5120457;28;20050;-80
2023/10/25 03:57:22;;;;;;;6.07;2.60;;;;;;;;;;5123211;28;20089;-80
2023/10/25 03:59:48;;;;;;;3.13;2.83;;;;;;;;;;5122629;28;20072;-80
2023/10/25 04:02:14;;;;;;;5.10;2.85;;;;;;;;;;5121039;28;20040;-80
2023/10/25 04:04:40;;;;;;;4.97;2.80;;;;;;;;;;5122086;28;20470;-80
2023/10/25 04:07:06;;;;;;;4.35;3.17;;;;;;;;;;5123585;28;20036;-81
2023/10/25 04:09:32;;;;;;;5.80;3.15;;;;;;;;;;5119438;28;20039;-81
2023/10/25 04:11:58;;;;;;;4.20;2.80;;;;;;;;;;5119441;28;20042;-80
2023/10/25 04:14:24;;;;;;;5.30;3.15;;;;;;;;;;5104262;28;20482;-80
2023/10/25 04:16:50;;;;;;;3.53;2.22;;;;;;;;;;5119570;28;20035;-80
2023/10/25 04:19:16;;;;;;;4.70;3.03;;;;;;;;;;5119658;28;20099;-80
2023/10/25 04:21:42;;;;;;;4.32;2.72;;;;;;;;;;5121916;28;20055;-80
2023/10/25 04:24:08;;;;;;;6.15;2.53;;;;;;;;;;5117455;28;20035;-80
2023/10/25 04:26:34;;;;;;;5.30;2.90;;;;;;;;;;5116518;28;20032;-80
2023/10/25 04:29:00;;;;;;;2.50;2.30;;;;;;;;;;5119975;28;20039;-80
2023/10/25 04:31:26;;;;;;;3.55;2.40;;;;;;;;;;5120180;28;20050;-80
2023/10/25 04:33:52;;;;;;;4.20;2.72;;;;;;;;;;5118688;28;20039;-80
2023/10/25 04:36:18;;;;;;;5.50;3.10;;;;;;;;;;5120726;28;20031;-80
2023/10/25 04:38:46;;;;;;;4.10;2.60;;;;;;;;;;5118609;28;20036;-80
2023/10/25 04:41:12;;;;;;;4.05;2.78;;;;;;;;;;5118637;28;20035;-80
2023/10/25 04:43:41;;;;;;;4.25;2.80;;;;;;;;;;5120087;28;20478;-80
2023/10/25 04:46:13;;;;;;;7.05;2.88;;;;;;;;;;5118786;28;20089;-80
2023/10/25 04:48:38;;;;;;;5.65;3.20;;;;;;;;;;5111627;28;20055;-80
2023/10/25 04:51:05;;;;;;;5.22;3.28;;;;;;;;;;5101243;28;20031;-80
2023/10/25 04:53:31;;;;;;;3.00;2.58;;;;;;;;;;5120235;28;20118;-80
2023/10/25 04:55:57;;;;;;;4.90;2.58;;;;;;;;;;5118421;28;20455;-80
2023/10/25 04:58:24;;;;;;;3.53;2.88;;;;;;;;;;5113258;28;20138;-80
2023/10/25 05:00:52;;;;;;;4.97;2.65;;;;;;;;;;5118574;28;20093;-80
2023/10/25 05:03:18;;;;;;;3.85;2.67;;;;;;;;;;5117936;28;20046;-80
2023/10/25 05:05:46;;;;;;;3.35;2.38;;;;;;;;;;5119509;28;20039;-80
2023/10/25 05:08:13;;;;;;;5.60;2.83;;;;;;;;;;5119101;28;20039;-80
2023/10/25 05:10:39;;;;;;;3.90;2.90;;;;;;;;;;5120459;28;20118;-80
2023/10/25 05:13:05;;;;;;;3.33;2.55;;;;;;;;;;5119118;28;20040;-80
2023/10/25 05:15:35;;;;;;;4.95;2.78;;;;;;;;;;5118415;28;20490;-80
2023/10/25 05:18:01;;;;;;;4.45;2.78;;;;;;;;;;5118759;28;20039;-81
2023/10/25 05:20:30;;;;;;;4.20;2.80;;;;;;;;;;5119205;28;20245;-81
2023/10/25 05:22:58;;;;;;;5.68;3.17;;;;;;;;;;5100576;28;20126;-81
2023/10/25 05:25:28;;;;;;;4.50;2.75;;;;;;;;;;5119734;28;20059;-81
2023/10/25 05:27:54;;;;;;;4.57;2.95;;;;;;;;;;5116418;28;20043;-81
2023/10/25 05:30:21;;;;;;;7.57;3.85;;;;;;;;;;5115966;28;20069;-80
2023/10/25 05:32:48;;;;;;;4.57;2.88;;;;;;;;;;5119140;28;20039;-80
2023/10/25 05:35:14;;;;;;;5.93;3.10;;;;;;;;;;5114643;28;20035;-81
2023/10/25 05:37:40;;;;;;;3.65;2.45;;;;;;;;;;5112514;28;20040;-80
2023/10/25 05:40:07;;;;;;;4.82;2.75;;;;;;;;;;5116244;28;20080;-81
2023/10/25 05:42:39;;;;;;;3.08;2.35;;;;;;;;;;5112965;28;20722;-80
2023/10/25 05:45:07;;;;;;;4.88;2.80;;;;;;;;;;5120506;28;20635;-81
2023/10/25 05:47:33;;;;;;;5.03;3.10;;;;;;;;;;5118769;28;20043;-81
2023/10/25 05:49:59;;;;;;;6.45;2.75;;;;;;;;;;5115505;28;20040;-81
2023/10/25 05:52:26;;;;;;;4.00;2.60;;;;;;;;;;5135371;28;20035;-81
2023/10/25 05:54:52;;;;;;;5.03;3.38;;;;;;;;;;5136370;28;20031;-80
2023/10/25 05:57:18;;;;;;;4.97;2.85;;;;;;;;;;5133992;28;20081;-81
2023/10/25 05:59:44;;;;;;;5.65;2.95;;;;;;;;;;5136675;28;20038;-81
2023/10/25 06:02:11;;;;;;;4.55;2.97;;;;;;;;;;5135202;28;20067;-81
2023/10/25 06:04:37;;;;;;;4.78;3.30;;;;;;;;;;5118395;28;20478;-81
2023/10/25 06:07:04;;;;;;;4.40;2.88;;;;;;;;;;5118492;28;20555;-81
2023/10/25 06:09:30;;;;;;;5.85;3.20;;;;;;;;;;5120043;28;20028;-80
2023/10/25 06:11:56;;;;;;;3.78;2.63;;;;;;;;;;5118228;28;20035;-81
2023/10/25 06:14:24;;;;;;;4.65;3.55;;;;;;;;;;5097942;28;20064;-81
2023/10/25 06:16:50;;;;;;;7.03;3.30;;;;;;;;;;5119608;28;20040;-80
2023/10/25 06:19:16;;;;;;;4.50;2.92;;;;;;;;;;5124076;27;20439;-81
2023/10/25 06:21:42;;;;;;;4.88;3.50;;;;;;;;;;5121902;28;20032;-81
2023/10/25 06:24:08;;;;;;;3.70;2.95;;;;;;;;;;5122794;28;20135;-81
2023/10/25 06:26:38;;;;;;;5.82;3.30;;;;;;;;;;5125384;28;20062;-81
2023/10/25 06:29:04;;;;;;;6.53;3.05;;;;;;;;;;5125179;28;20036;-81
2023/10/25 06:31:30;;;;;;;3.28;2.78;;;;;;;;;;5126251;28;20065;-80
2023/10/25 06:33:56;;;;;;;4.28;3.50;;;;;;;;;;5125833;28;20490;-81
2023/10/25 06:36:24;;;;;;;3.30;2.75;;;;;;;;;;5123523;28;20051;-81
2023/10/25 06:38:50;;;;;;;3.85;2.55;;;;;;;;;;5112074;28;20482;-81
2023/10/25 06:41:16;;;;;;;4.65;2.80;;;;;;;;;;5119805;28;20057;-81
2023/10/25 06:43:45;;;;;;;4.47;2.70;;;;;;;;;;5118692;28;20091;-81
2023/10/25 06:46:15;;;;;;;6.88;3.20;;;;;;;;;;5123143;28;20043;-81
2023/10/25 06:48:44;;;;;;;5.72;2.92;;;;;;;;;;5115573;28;20043;-81
2023/10/25 06:51:11;;;;;;;5.22;3.03;;;;;;;;;;5124130;28;20099;-81
2023/10/25 06:53:37;;;;;;;3.30;2.33;;;;;;;;;;5122656;27;20036;-82
2023/10/25 06:56:04;;;;;;;5.00;2.80;;;;;;;;;;5129528;28;20043;-81
2023/10/25 06:58:30;;;;;;;4.13;2.95;;;;;;;;;;5130702;28;20031;-82
2023/10/25 07:00:56;;;;;;;5.85;3.13;;;;;;;;;;5131351;28;20035;-83
2023/10/25 07:03:36;;;;;;;3.05;2.72;;;;;;;;;;5129730;28;20036;-81
2023/10/25 07:06:03;;;;;;;4.97;3.15;;;;;;;;;;5129776;28;20028;-81
2023/10/25 07:08:31;;;;;;;6.45;3.47;;;;;;;;;;5131290;28;20035;-81
2023/10/25 07:10:57;;;;;;;4.20;2.50;;;;;;;;;;5135819;28;20031;-81
2023/10/25 07:13:26;;;;;;;3.30;2.70;;;;;;;;;;5124715;28;20040;-80
2023/10/25 07:15:56;;;;;;;3.80;2.78;;;;;;;;;;5125793;28;20038;-81
2023/10/25 07:18:22;;;;;;;5.45;3.33;;;;;;;;;;5124551;28;20054;-81
2023/10/25 07:20:48;;;;;;;3.90;3.00;;;;;;;;;;5119870;27;20074;-80
2023/10/25 07:23:14;;;;;;;7.13;2.90;;;;;;;;;;5108139;28;20051;-81
2023/10/25 07:25:44;;;;;;;3.67;2.45;;;;;;;;;;5124513;28;20043;-81
2023/10/25 07:28:10;;;;;;;6.72;2.83;;;;;;;;;;5124934;28;20092;-81
2023/10/25 07:30:36;;;;;;;3.55;2.55;;;;;;;;;;5129178;28;20471;-82
2023/10/25 07:33:02;;;;;;;4.20;2.75;;;;;;;;;;5125632;28;20044;-81
2023/10/25 07:35:28;;;;;;;4.90;3.00;;;;;;;;;;5123336;28;20043;-80
2023/10/25 07:37:54;;;;;;;6.60;3.22;;;;;;;;;;5118794;28;20103;-82
2023/10/25 07:40:20;;;;;;;5.70;3.00;;;;;;;;;;5126606;28;20070;-81
2023/10/25 07:42:46;;;;;;;6.55;3.22;;;;;;;;;;5127500;28;20066;-81
2023/10/25 07:45:12;;;;;;;4.88;3.10;;;;;;;;;;5127134;28;20039;-81
2023/10/25 07:47:38;;;;;;;5.50;2.95;;;;;;;;;;5127758;28;20501;-81
2023/10/25 07:50:05;;;;;;;4.63;2.72;;;;;;;;;;5122992;28;20039;-81
2023/10/25 07:52:32;;;;;;;3.45;2.47;;;;;;;;;;5154981;27;20046;-81
2023/10/25 07:54:58;;;;;;;3.55;3.22;;;;;;;;;;5112939;28;20039;-81
2023/10/25 07:57:26;;;;;;;3.70;2.60;;;;;;;;;;5122758;28;20074;-81
2023/10/25 07:59:53;;;;;;;3.60;2.63;;;;;;;;;;5116828;28;20040;-82
2023/10/25 08:02:19;;;;;;;4.80;3.28;;;;;;;;;;5114749;27;20089;-81
2023/10/25 08:04:45;;;;;;;3.17;2.63;;;;;;;;;;5119140;28;20039;-81
2023/10/25 08:07:11;;;;;;;4.43;3.13;;;;;;;;;;5097619;28;20038;-81
2023/10/25 08:09:40;;;;;;;6.95;3.00;;;;;;;;;;5115481;28;20047;-81
2023/10/25 08:12:06;;;;;;;4.68;3.33;;;;;;;;;;5122125;27;20051;-82
2023/10/25 08:14:32;;;;;;;5.63;3.45;;;;;;;;;;5115878;28;20046;-82
2023/10/25 08:16:58;;;;;;;6.53;3.50;;;;;;;;;;5122553;28;20091;-80
2023/10/25 08:19:24;;;;;;;6.60;3.70;;;;;;;;;;5123094;28;20042;-80
2023/10/25 08:21:50;;;;;;;6.28;4.63;;;;;;;;;;5122635;28;20491;-81
2023/10/25 08:24:16;;;;;;;4.63;3.40;;;;;;;;;;5122784;28;20042;-80
2023/10/25 08:26:42;;;;;;;4.55;3.58;;;;;;;;;;5120686;28;20031;-80
2023/10/25 08:29:09;;;;;;;6.35;3.63;;;;;;;;;;5120826;28;20074;-80
2023/10/25 08:31:35;;;;;;;4.82;3.88;;;;;;;;;;5119071;28;20031;-80
2023/10/25 08:34:01;;;;;;;4.22;3.63;;;;;;;;;;5116553;28;20039;-81
2023/10/25 08:36:31;;;;;;;6.45;3.45;;;;;;;;;;5120295;28;20039;-81
2023/10/25 08:38:57;;;;;;;7.18;4.00;;;;;;;;;;5119308;28;20101;-81
2023/10/25 08:41:28;;;;;;;4.20;3.25;;;;;;;;;;5119905;28;20398;-81
2023/10/25 08:43:53;;;;;;;;;;;;;;;;;;5119996;28;20043;-81
2023/10/25 08:46:20;;;;;;;4.28;3.17;;;;;;;;;;5120709;28;19922;-81
2023/10/25 08:48:47;;;;;;;6.05;3.20;;;;;;;;;;5119268;28;20040;-82
2023/10/25 08:51:14;;;;;;;4.45;3.47;;;;;;;;;;5119445;28;20040;-81
2023/10/25 08:53:41;;;;;;;6.25;3.72;;;;;;;;;;5100827;28;20036;-81
2023/10/25 08:56:09;;;;;;;4.72;3.50;;;;;;;;;;5118832;28;20035;-81
2023/10/25 08:58:36;;;;;;;5.43;3.97;;;;;;;;;;5112305;28;20384;-81
2023/10/25 09:01:02;;;;;;;4.43;3.42;;;;;;;;;;5094927;28;20059;-82
2023/10/25 09:03:32;;;;;;;4.65;3.42;;;;;;;;;;5120394;28;20426;-82
2023/10/25 09:05:58;;;;;;;5.53;3.38;;;;;;;;;;5120627;28;20050;-82
2023/10/25 09:08:24;;;;;;;5.50;3.53;;;;;;;;;;5119669;28;20078;-81
2023/10/25 09:11:09;;;;;;;5.05;3.42;;;;;;;;;;5121976;28;20039;-81
2023/10/25 09:13:37;;;;;;;8.73;3.47;;;;;;;;;;5117853;28;20039;-81
2023/10/25 09:16:10;;;;;;;4.88;3.95;;;;;;;;;;5118419;28;20092;-81
2023/10/25 09:18:36;;;;;;;5.20;3.90;;;;;;;;;;5121648;28;20043;-80
2023/10/25 09:21:03;;;;;;;5.72;4.13;;;;;;;;;;5120006;28;20050;-81
2023/10/25 09:23:29;;;;;;;5.90;3.40;;;;;;;;;;5123187;28;20036;-81
2023/10/25 09:25:56;;;;;;;4.43;3.90;;;;;;;;;;5102297;28;20078;-81
2023/10/25 09:28:32;;;;;;;5.50;3.75;;;;;;;;;;5119235;28;20039;-81
2023/10/25 09:30:59;;;;;;;5.80;4.25;;;;;;;;;;5115640;28;20044;-81
2023/10/25 09:33:25;;;;;;;7.93;3.85;;;;;;;;;;5117386;28;20051;-82
2023/10/25 09:35:52;;;;;;;8.50;4.50;;;;;;;;;;5121408;28;20067;-82
2023/10/25 09:38:18;;;;;;;8.23;4.10;;;;;;;;;;5116891;28;20044;-81
2023/10/25 09:40:45;;;;;;;5.55;4.05;;;;;;;;;;5118099;28;20032;-82
2023/10/25 09:43:15;;;;;;;4.78;3.50;;;;;;;;;;5107329;28;20039;-81
2023/10/25 09:45:43;;;;;;;7.05;3.67;;;;;;;;;;5126089;28;20095;-82
2023/10/25 09:48:12;;;;;;;6.22;4.03;;;;;;;;;;5130055;28;20054;-82
2023/10/25 09:50:38;;;;;;;4.22;3.53;;;;;;;;;;5132076;28;20047;-81
2023/10/25 09:53:23;;;;;;;6.38;3.50;;;;;;;;;;5136974;28;20024;-80
2023/10/25 09:55:54;;;;;;;5.78;3.35;;;;;;;;;;5107874;28;20039;-79
2023/10/25 09:58:21;;;;;;;5.75;3.72;;;;;;;;;;5124338;28;20080;-79
2023/10/25 10:00:48;;;;;;;4.15;3.03;;;;;;;;;;5122700;28;20038;-79
2023/10/25 10:03:17;;;;;;;5.28;3.05;;;;;;;;;;5124619;28;20456;-79
2023/10/25 10:05:56;;;;;;;4.70;3.53;;;;;;;;;;5124246;28;20045;-79
2023/10/25 10:08:36;;;;;;;4.80;3.30;;;;;;;;;;5121504;28;20044;-80
2023/10/25 10:11:06;;;;;;;3.65;2.70;;;;;;;;;;5122547;28;20036;-79
2023/10/25 10:13:32;;;;;;;5.38;3.03;;;;;;;;;;5123885;28;20046;-79
2023/10/25 10:16:00;;;;;;;4.72;3.17;;;;;;;;;;5123038;28;20036;-79
2023/10/25 10:18:31;;;;;;;3.63;2.83;;;;;;;;;;5123147;28;20043;-79
2023/10/25 10:21:00;;;;;;;4.57;2.60;;;;;;;;;;5124335;28;20042;-80
2023/10/25 10:23:38;;;;;;;4.85;2.60;;;;;;;;;;5126265;28;20036;-80
2023/10/25 10:26:05;;;;;;;4.95;2.85;;;;;;;;;;5125296;28;20046;-79
2023/10/25 10:28:39;;;;;;;3.50;3.03;;;;;;;;;;5125575;28;20108;-79
2023/10/25 10:31:05;;;;;;;3.80;2.45;;;;;;;;;;5121518;28;20031;-79
2023/10/25 10:33:34;;;;;;;3.78;2.63;;;;;;;;;;5123711;28;20044;-80
2023/10/25 10:36:01;;;;;;;8.95;3.05;;;;;;;;;;5123536;28;20040;-80
2023/10/25 10:38:27;;;;;;;5.28;2.88;;;;;;;;;;5126202;28;20440;-80
2023/10/25 10:41:01;;;;;;;3.63;2.47;;;;;;;;;;5126880;28;20123;-80
2023/10/25 10:43:28;;;;;;;4.15;2.60;;;;;;;;;;5124590;28;20051;-80
2023/10/25 10:45:55;;;;;;;4.20;2.42;;;;;;;;;;5124844;28;20036;-80
2023/10/25 10:48:26;;;;;;;3.50;2.80;;;;;;;;;;5125749;28;20115;-80
2023/10/25 10:50:52;;;;;;;4.97;2.80;;;;;;;;;;5123589;28;20101;-80
2023/10/25 10:53:18;;;;;;;3.25;2.22;;;;;;;;;;5122997;28;20031;-80
2023/10/25 10:55:45;;;;;;;3.22;2.33;;;;;;;;;;5108623;28;20047;-80
2023/10/25 10:58:11;;;;;;;3.95;2.80;;;;;;;;;;5124463;28;20540;-80
2023/10/25 11:00:44;;;;;;;4.13;2.72;;;;;;;;;;5125000;28;20036;-80
2023/10/25 11:03:10;;;;;;;5.40;2.90;;;;;;;;;;5124388;28;20043;-80
2023/10/25 11:05:37;;;;;;;5.60;2.70;;;;;;;;;;5126355;28;20071;-80
2023/10/25 11:08:08;;;;;;;3.33;2.45;;;;;;;;;;5123227;28;20043;-80
2023/10/25 11:10:35;;;;;;;5.05;2.33;;;;;;;;;;5124312;28;20044;-80
2023/10/25 11:13:06;;;;;;;4.22;2.60;;;;;;;;;;5124995;28;20039;-80
2023/10/25 11:15:32;;;;;;;3.22;2.55;;;;;;;;;;5106778;28;20040;-80
2023/10/25 11:17:58;;;;;;;3.55;2.42;;;;;;;;;;5106427;28;20038;-80
2023/10/25 11:20:24;;;;;;;4.15;2.20;;;;;;;;;;5123342;28;20119;-79
2023/10/25 11:22:51;;;;;;;3.65;2.30;;;;;;;;;;5123360;28;20028;-79
2023/10/25 11:25:21;;;;;;;2.75;2.20;;;;;;;;;;5126097;28;20046;-79
2023/10/25 11:27:47;;;;;;;4.85;2.75;;;;;;;;;;5122747;28;20096;-80
2023/10/25 11:30:13;;;;;;;3.72;2.35;;;;;;;;;;5124567;28;20061;-80
2023/10/25 11:32:42;;;;;;;3.53;2.65;;;;;;;;;;5125188;28;20069;-80
2023/10/25 11:35:19;;;;;;;3.45;2.40;;;;;;;;;;5122450;28;20085;-80
2023/10/25 11:37:49;;;;;;;3.70;1.92;;;;;;;;;;5115942;28;20035;-80
2023/10/25 11:40:15;;;;;;;3.22;2.00;;;;;;;;;;5118667;28;20118;-80
2023/10/25 11:42:42;;;;;;;2.72;2.25;;;;;;;;;;5135797;28;20057;-79
2023/10/25 11:45:08;;;;;;;3.55;2.40;;;;;;;;;;5131542;28;20042;-79
2023/10/25 11:47:37;;;;;;;1.75;1.63;;;;;;;;;;5127151;28;20036;-79
2023/10/25 11:50:03;;;;;;;3.97;1.98;;;;;;;;;;5126930;28;20046;-80
2023/10/25 11:52:30;;;;;;;2.72;2.30;;;;;;;;;;5127240;28;20036;-80
2023/10/25 11:54:58;;;;;;;2.85;1.90;;;;;;;;;;5124779;28;20441;-80
2023/10/25 11:57:24;;;;;;;4.88;2.30;;;;;;;;;;5125223;28;20047;-80
2023/10/25 11:59:51;;;;;;;4.70;2.30;;;;;;;;;;5108454;28;20122;-80
2023/10/25 12:02:19;;;;;;;3.13;2.25;;;;;;;;;;5126675;28;20051;-82
2023/10/25 12:04:45;;;;;;;3.03;1.90;;;;;;;;;;5128734;28;20055;-82
2023/10/25 12:07:11;;;;;;;3.33;2.00;;;;;;;;;;5119970;28;20043;-80
2023/10/25 12:09:39;;;;;;;2.42;1.67;;;;;;;;;;5126309;28;20383;-81
2023/10/25 12:12:05;;;;;;;2.42;1.92;;;;;;;;;;5124829;28;20035;-81
2023/10/25 12:14:31;;;;;;;3.60;2.03;;;;;;;;;;5123245;28;20185;-81
2023/10/25 12:16:58;;;;;;;6.10;1.83;;;;;;;;;;5125488;28;20040;-81
2023/10/25 12:19:24;;;;;;;3.15;2.08;;;;;;;;;;5123231;28;20411;-80
2023/10/25 12:21:55;;;;;;;4.97;2.50;;;;;;;;;;5120772;28;20456;-80
2023/10/25 12:24:28;;;;;;;4.70;2.20;;;;;;;;;;5104200;28;20043;-80
2023/10/25 12:26:54;;;;;;;3.63;2.22;;;;;;;;;;5152779;27;20040;-81
2023/10/25 12:29:20;;;;;;;6.32;2.70;;;;;;;;;;5101267;28;20050;-81
2023/10/25 12:31:46;;;;;;;3.03;2.55;;;;;;;;;;5121897;28;20027;-81
2023/10/25 12:34:13;;;;;;;3.08;2.40;;;;;;;;;;5120834;28;20038;-81
2023/10/25 12:36:39;;;;;;;2.03;1.83;;;;;;;;;;5120060;28;20047;-80
2023/10/25 12:39:05;;;;;;;3.03;2.45;;;;;;;;;;5119870;28;20046;-81
2023/10/25 12:41:33;;;;;;;5.75;2.60;;;;;;;;;;5117442;28;20044;-81
2023/10/25 12:43:59;;;;;;;4.65;1.70;;;;;;;;;;5119592;28;20048;-80
2023/10/25 12:46:25;;;;;;;2.63;1.77;;;;;;;;;;5119812;28;20099;-80
2023/10/25 12:48:51;;;;;;;6.57;3.85;;;;;;;;;;5120610;28;20065;-81
2023/10/25 12:51:17;;;;;;;2.38;1.70;;;;;;;;;;5119321;28;20566;-81
2023/10/25 12:53:43;;;;;;;5.05;2.42;;;;;;;;;;5120140;28;20051;-80
2023/10/25 12:56:09;;;;;;;3.35;1.95;;;;;;;;;;5116260;28;20145;-81
2023/10/25 12:58:35;;;;;;;2.92;2.15;;;;;;;;;;5118327;28;20508;-81
2023/10/25 13:01:01;;;;;;;3.10;2.15;;;;;;;;;;5099346;28;20474;-81
2023/10/25 13:03:27;;;;;;;2.15;1.92;;;;;;;;;;5112929;28;20067;-81
2023/10/25 13:05:53;;;;;;;3.47;2.17;;;;;;;;;;5113377;28;20039;-81
2023/10/25 13:08:19;;;;;;;2.67;2.00;;;;;;;;;;5117124;28;20040;-81
2023/10/25 13:10:45;;;;;;;3.38;2.33;;;;;;;;;;5117566;28;20410;-81
2023/10/25 13:13:11;;;;;;;2.90;2.40;;;;;;;;;;5116607;28;20038;-81
2023/10/25 13:15:37;;;;;;;2.65;2.08;;;;;;;;;;5116933;28;20047;-81
2023/10/25 13:18:03;;;;;;;8.93;2.22;;;;;;;;;;5115146;28;20487;-81
2023/10/25 13:20:29;;;;;;;3.65;2.08;;;;;;;;;;5114247;28;20031;-80
2023/10/25 13:22:55;;;;;;;3.17;2.30;;;;;;;;;;5117266;28;20039;-80
2023/10/25 13:25:21;;;;;;;3.67;2.38;;;;;;;;;;5117954;28;20035;-80
2023/10/25 13:27:47;;;;;;;4.18;2.13;;;;;;;;;;5121159;28;20406;-80
2023/10/25 13:30:13;;;;;;;4.05;2.15;;;;;;;;;;5121766;28;20042;-80
2023/10/25 13:32:39;;;;;;;2.60;2.22;;;;;;;;;;5121728;28;20050;-81
2023/10/25 13:35:05;;;;;;;2.65;1.95;;;;;;;;;;5121125;28;20031;-80
2023/10/25 13:37:31;;;;;;;2.75;2.17;;;;;;;;;;5125342;28;20406;-80
2023/10/25 13:39:57;;;;;;;3.55;2.20;;;;;;;;;;5124314;28;20063;-80
2023/10/25 13:42:23;;;;;;;2.78;2.50;;;;;;;;;;5125354;28;20038;-80
2023/10/25 13:44:49;;;;;;;3.33;2.88;;;;;;;;;;5121469;28;20035;-80
2023/10/25 13:47:15;;;;;;;3.28;2.17;;;;;;;;;;5119327;28;20126;-80
2023/10/25 13:49:41;;;;;;;4.43;2.15;;;;;;;;;;5123261;28;20073;-80
2023/10/25 13:52:07;;;;;;;4.20;2.22;;;;;;;;;;5123036;28;20031;-80
2023/10/25 13:54:33;;;;;;;3.95;2.22;;;;;;;;;;5122204;28;20179;-80
2023/10/25 13:56:59;;;;;;;4.38;2.35;;;;;;;;;;5120933;28;20112;-81
2023/10/25 13:59:26;;;;;;;6.28;2.33;;;;;;;;;;5123547;28;20073;-81
2023/10/25 14:01:53;;;;;;;5.82;2.53;;;;;;;;;;5103337;28;20039;-81
2023/10/25 14:04:19;;;;;;;4.22;2.47;;;;;;;;;;5122153;28;20024;-81
2023/10/25 14:06:45;;;;;;;2.75;2.35;;;;;;;;;;5122739;28;20050;-81
2023/10/25 14:09:11;;;;;;;3.15;1.98;;;;;;;;;;5123212;28;20099;-81
2023/10/25 14:11:37;;;;;;;3.88;2.40;;;;;;;;;;5118909;27;20059;-81
2023/10/25 14:14:03;;;;;;;5.65;2.42;;;;;;;;;;5120292;28;20043;-81
2023/10/25 14:16:29;;;;;;;3.35;2.05;;;;;;;;;;5116293;28;20036;-81
2023/10/25 14:18:55;;;;;;;3.60;2.50;;;;;;;;;;5118917;27;20038;-82
2023/10/25 14:21:23;;;;;;;3.35;2.20;;;;;;;;;;5124430;28;20375;-80
2023/10/25 14:23:53;;;;;;;3.05;2.38;;;;;;;;;;5123540;28;20036;-80
2023/10/25 14:26:19;;;;;;;4.30;2.20;;;;;;;;;;5119841;28;20031;-80
2023/10/25 14:28:45;;;;;;;3.78;2.10;;;;;;;;;;5119585;28;20051;-80
2023/10/25 14:31:15;;;;;;;2.83;2.15;;;;;;;;;;5119293;28;20036;-80
2023/10/25 14:33:42;;;;;;;2.78;2.10;;;;;;;;;;5116090;28;20032;-80
2023/10/25 14:36:14;;;;;;;4.10;2.47;;;;;;;;;;5113673;28;20031;-79
2023/10/25 14:38:45;;;;;;;2.25;2.00;;;;;;;;;;5110179;28;20036;-78
2023/10/25 14:41:11;;;;;;;3.72;2.08;;;;;;;;;;5113948;28;20090;-79
2023/10/25 14:43:37;;;;;;;4.38;2.30;;;;;;;;;;5115216;28;20032;-79